Time;durP1;ratioP1;P1;durP2;ratioP2;P2;SDS_P1;SDS_P2;PMS_P1;PMS_P2;Temp;Humidity;BMP_temperature;BMP_pressure;BME280_temperature;BME280_humidity;BME280_pressure;Samples;Min_cycle;Max_cycle;Signal;HPM_P1;HPM_P2
2022/03/03 00:00:19;;;;;;;;;;;;;;;8.40;28.94;99747.50;4480878;31;35259;-62
2022/03/03 00:02:47;;;;;;;;;;;;;;;8.42;28.84;99747.41;4485232;31;34094;-63
2022/03/03 00:05:15;;;;;;;;;;;;;;;7.93;29.29;99742.59;4484578;31;34299;-62
2022/03/03 00:07:42;;;;;;;;;;;;;;;8.14;28.90;99756.31;4482980;31;35242;-63
2022/03/03 00:10:10;;;;;;;;;;;;;;;8.20;28.97;99747.94;4488753;31;34329;-62
2022/03/03 00:12:38;;;;;;;;;;;;;;;8.30;28.52;99754.38;4484770;31;34007;-62
2022/03/03 00:15:06;;;;;;;;;;;;;;;8.46;28.13;99750.75;4487528;31;33119;-62
2022/03/03 00:17:34;;;;;;;;;;;;;;;8.25;28.43;99752.94;4487091;31;33645;-62
2022/03/03 00:20:02;;;;;;;;;;;;;;;8.12;28.51;99756.44;4486052;31;34215;-63
2022/03/03 00:22:30;;;;;;;;;;;;;;;8.28;28.50;99752.75;4484306;31;34306;-64
2022/03/03 00:24:58;;;;;;;;;;;;;;;8.19;28.30;99750.72;4485149;31;34398;-63
2022/03/03 00:27:26;;;;;;;;;;;;;;;8.13;28.38;99747.47;4497068;31;34191;-62
2022/03/03 00:29:54;;;;;;;;;;;;;;;7.83;28.73;99750.31;4489194;31;34818;-63
2022/03/03 00:32:22;;;;;;;;;;;;;;;8.05;29.01;99748.91;4485220;31;34867;-63
2022/03/03 00:34:50;;;;;;;;;;;;;;;8.13;28.48;99747.47;4491669;31;33339;-64
2022/03/03 00:37:18;;;;;;;;;;;;;;;7.93;29.97;99753.25;4485175;31;33824;-62
2022/03/03 00:39:46;;;;;;;;;;;;;;;8.33;28.70;99751.50;4487976;31;34223;-63
2022/03/03 00:42:14;;;;;;;;;;;;;;;8.28;29.39;99753.62;4496606;31;33851;-63
2022/03/03 00:44:41;;;;;;;;;;;;;;;8.52;28.86;99753.84;4487794;31;33728;-66
2022/03/03 00:47:09;;;;;;;;;;;;;;;8.21;29.51;99744.28;4487560;31;35292;-62
2022/03/03 00:49:37;;;;;;;;;;;;;;;8.40;28.26;99749.31;4487480;31;32826;-62
2022/03/03 00:52:05;;;;;;;;;;;;;;;8.26;28.98;99744.03;4487873;31;34216;-62
2022/03/03 00:54:33;;;;;;;;;;;;;;;8.12;29.07;99739.56;4493891;31;34614;-63
2022/03/03 00:57:00;;;;;;;;;;;;;;;8.25;28.95;99735.16;4480002;32;32802;-61
2022/03/03 00:59:28;;;;;;;;;;;;;;;8.40;28.37;99730.66;4483998;31;34386;-63
2022/03/03 01:01:56;;;;;;;;;;;;;;;7.89;30.60;99728.56;4482053;31;34462;-61
2022/03/03 01:04:24;;;;;;;;;;;;;;;8.27;29.25;99729.72;4484160;31;34858;-62
2022/03/03 01:06:51;;;;;;;;;;;;;;;8.63;28.27;99734.44;4484889;31;35594;-62
2022/03/03 01:09:19;;;;;;;;;;;;;;;8.53;28.28;99731.53;4485464;31;34346;-61
2022/03/03 01:11:47;;;;;;;;;;;;;;;8.52;28.66;99734.34;4483265;32;35276;-63
2022/03/03 01:14:21;;;;;;;;;;;;;;;8.48;28.60;99723.00;4483489;32;33759;-62
2022/03/03 01:16:49;;;;;;;;;;;;;;;8.17;29.71;99724.97;4490807;31;34689;-62
2022/03/03 01:19:18;;;;;;;;;;;;;;;8.62;28.48;99725.59;4487547;31;33848;-62
2022/03/03 01:21:46;;;;;;;;;;;;;;;8.76;27.77;99713.13;4485461;31;34383;-62
2022/03/03 01:24:13;;;;;;;;;;;;;;;8.58;28.23;99712.59;4482108;32;33468;-62
2022/03/03 01:26:41;;;;;;;;;;;;;;;8.36;29.24;99710.44;4483993;31;35222;-63
2022/03/03 01:29:09;;;;;;;;;;;;;;;8.61;28.49;99710.56;4481739;31;33875;-62
2022/03/03 01:31:37;;;;;;;;;;;;;;;8.59;28.56;99699.13;4490454;31;35457;-61
2022/03/03 01:34:06;;;;;;;;;;;;;;;8.27;29.59;99700.38;4483722;31;33590;-62
2022/03/03 01:36:34;;;;;;;;;;;;;;;8.38;28.87;99709.44;4483868;31;34066;-61
2022/03/03 01:39:02;;;;;;;;;;;;;;;8.22;30.20;99699.81;4496098;31;34111;-60
2022/03/03 01:41:30;;;;;;;;;;;;;;;8.53;28.95;99696.00;4486733;31;35162;-61
2022/03/03 01:43:58;;;;;;;;;;;;;;;8.37;29.10;99697.00;4496043;31;33398;-61
2022/03/03 01:46:26;;;;;;;;;;;;;;;8.42;29.16;99691.41;4488136;31;34952;-62
2022/03/03 01:48:54;;;;;;;;;;;;;;;8.54;28.90;99697.72;4485630;32;35485;-61
2022/03/03 01:51:21;;;;;;;;;;;;;;;8.38;29.19;99688.09;4486708;31;34493;-62
2022/03/03 01:53:49;;;;;;;;;;;;;;;8.35;29.04;99692.75;4486027;31;33505;-60
2022/03/03 01:56:17;;;;;;;;;;;;;;;8.18;28.94;99677.84;4486023;31;35025;-60
2022/03/03 01:58:45;;;;;;;;;;;;;;;8.01;29.80;99683.44;4488736;31;33877;-60
2022/03/03 02:01:13;;;;;;;;;;;;;;;8.12;29.08;99683.56;4487577;31;34394;-62
2022/03/03 02:03:41;;;;;;;;;;;;;;;8.08;30.02;99679.41;4465919;31;32516;-60
2022/03/03 02:06:09;;;;;;;;;;;;;;;8.05;30.11;99677.78;4480030;31;33897;-60
2022/03/03 02:08:37;;;;;;;;;;;;;;;7.69;30.79;99681.03;4480231;31;34558;-61
2022/03/03 02:11:05;;;;;;;;;;;;;;;8.03;30.01;99678.88;4480515;31;35709;-61
2022/03/03 02:13:32;;;;;;;;;;;;;;;8.26;29.24;99675.53;4485945;31;33053;-62
2022/03/03 02:16:00;;;;;;;;;;;;;;;8.22;29.04;99671.38;4482354;31;33966;-61
2022/03/03 02:18:28;;;;;;;;;;;;;;;7.76;30.51;99670.84;4482268;32;34424;-60
2022/03/03 02:20:56;;;;;;;;;;;;;;;7.86;29.72;99662.16;4481523;31;34561;-61
2022/03/03 02:23:24;;;;;;;;;;;;;;;7.83;29.79;99654.38;4482645;31;34505;-60
2022/03/03 02:25:51;;;;;;;;;;;;;;;7.79;29.76;99652.00;4480886;31;34193;-61
2022/03/03 02:28:19;;;;;;;;;;;;;;;7.68;30.02;99658.03;4482250;31;34293;-60
2022/03/03 02:30:47;;;;;;;;;;;;;;;7.59;30.43;99647.94;4488256;31;35292;-60
2022/03/03 02:33:14;;;;;;;;;;;;;;;7.71;29.69;99647.16;4483209;31;35199;-61
2022/03/03 02:35:42;;;;;;;;;;;;;;;7.73;29.63;99650.56;4486926;31;35164;-59
2022/03/03 02:38:10;;;;;;;;;;;;;;;7.53;30.01;99656.34;4484260;31;34308;-61
2022/03/03 02:40:38;;;;;;;;;;;;;;;7.63;29.95;99654.78;4483436;31;34458;-61
2022/03/03 02:43:05;;;;;;;;;;;;;;;7.54;30.11;99652.69;4484629;31;33719;-60
2022/03/03 02:45:33;;;;;;;;;;;;;;;7.46;30.19;99658.53;4487250;31;34289;-60
2022/03/03 02:48:01;;;;;;;;;;;;;;;7.32;30.48;99653.19;4484225;31;35324;-61
2022/03/03 02:50:29;;;;;;;;;;;;;;;7.27;30.64;99655.31;4486141;31;35026;-61
2022/03/03 02:53:00;;;;;;;;;;;;;;;7.12;30.88;99651.78;4480866;32;33193;-61
2022/03/03 02:55:29;;;;;;;;;;;;;;;6.93;31.51;99652.06;4487563;31;34829;-60
2022/03/03 02:57:56;;;;;;;;;;;;;;;7.09;31.26;99641.34;4483381;31;34191;-61
2022/03/03 03:00:28;;;;;;;;;;;;;;;7.01;31.53;99647.12;4496815;31;34825;-60
2022/03/03 03:02:56;;;;;;;;;;;;;;;6.96;31.70;99638.56;4486834;31;33923;-60
2022/03/03 03:05:24;;;;;;;;;;;;;;;7.15;31.25;99641.81;4489556;31;32889;-60
2022/03/03 03:07:52;;;;;;;;;;;;;;;7.18;31.07;99638.09;4491581;31;34101;-59
2022/03/03 03:10:20;;;;;;;;;;;;;;;7.21;30.81;99636.09;4493397;31;34448;-61
2022/03/03 03:12:48;;;;;;;;;;;;;;;7.12;31.02;99638.47;4481440;32;33930;-61
2022/03/03 03:15:15;;;;;;;;;;;;;;;6.99;31.46;99641.91;4487428;31;34202;-61
2022/03/03 03:17:43;;;;;;;;;;;;;;;6.95;31.54;99636.88;4490521;31;34601;-61
2022/03/03 03:20:12;;;;;;;;;;;;;;;7.05;31.19;99640.66;4493590;31;34534;-60
2022/03/03 03:22:39;;;;;;;;;;;;;;;7.02;31.42;99632.03;4485851;31;33427;-61
2022/03/03 03:25:09;;;;;;;;;;;;;;;6.90;31.42;99634.50;4484250;31;34294;-61
2022/03/03 03:27:37;;;;;;;;;;;;;;;6.61;32.29;99638.91;4493231;31;34461;-62
2022/03/03 03:30:07;;;;;;;;;;;;;;;6.44;32.74;99639.06;4493033;31;35336;-60
2022/03/03 03:32:35;;;;;;;;;;;;;;;6.29;33.15;99648.78;4487758;31;33719;-60
2022/03/03 03:35:04;;;;;;;;;;;;;;;6.53;32.65;99638.53;4490774;31;34974;-60
2022/03/03 03:37:32;;;;;;;;;;;;;;;6.81;32.16;99647.50;4482674;31;33879;-60
2022/03/03 03:40:01;;;;;;;;;;;;;;;7.01;31.85;99641.81;4481683;31;34308;-60
2022/03/03 03:42:28;;;;;;;;;;;;;;;6.97;32.00;99645.63;4483624;32;33008;-61
2022/03/03 03:44:56;;;;;;;;;;;;;;;7.19;31.04;99647.78;4488223;31;34052;-61
2022/03/03 03:47:24;;;;;;;;;;;;;;;7.24;31.01;99632.41;4489996;31;34305;-62
2022/03/03 03:49:52;;;;;;;;;;;;;;;7.08;31.57;99636.97;4490774;31;35086;-61
2022/03/03 03:52:19;;;;;;;;;;;;;;;6.66;32.33;99641.31;4483513;31;33407;-60
2022/03/03 03:54:48;;;;;;;;;;;;;;;6.99;31.85;99644.56;4488155;31;32869;-60
2022/03/03 03:57:15;;;;;;;;;;;;;;;7.11;31.48;99645.63;4480697;32;35543;-61
2022/03/03 03:59:43;;;;;;;;;;;;;;;7.06;31.60;99649.50;4483461;31;33866;-60
2022/03/03 04:02:11;;;;;;;;;;;;;;;7.03;31.70;99653.25;4484659;31;34072;-61
2022/03/03 04:04:39;;;;;;;;;;;;;;;6.78;32.34;99650.37;4493021;31;33602;-61
2022/03/03 04:07:07;;;;;;;;;;;;;;;6.94;31.92;99640.50;4482220;31;34235;-60
2022/03/03 04:09:36;;;;;;;;;;;;;;;6.93;31.77;99638.75;4486773;31;34174;-60
2022/03/03 04:12:07;;;;;;;;;;;;;;;6.57;33.57;99644.50;4486983;31;33600;-61
2022/03/03 04:14:36;;;;;;;;;;;;;;;6.53;32.71;99641.19;4487160;31;34436;-62
2022/03/03 04:17:04;;;;;;;;;;;;;;;6.07;33.66;99639.44;4482450;31;34139;-63
2022/03/03 04:19:39;;;;;;;;;;;;;;;6.47;32.80;99636.22;4480702;31;33312;-63
2022/03/03 04:22:11;;;;;;;;;;;;;;;6.61;32.18;99630.94;4484860;31;33654;-63
2022/03/03 04:24:45;;;;;;;;;;;;;;;6.41;33.65;99628.63;4481592;31;32824;-63
2022/03/03 04:27:21;;;;;;;;;;;;;;;6.09;34.53;99634.03;4480963;31;33444;-63
2022/03/03 04:29:51;;;;;;;;;;;;;;;6.60;33.01;99633.69;4484231;31;33310;-67
2022/03/03 04:32:26;;;;;;;;;;;;;;;6.62;33.26;99629.16;4481364;31;34499;-63
2022/03/03 04:35:02;;;;;;;;;;;;;;;6.86;32.50;99632.12;4484818;31;34245;-64
2022/03/03 04:37:34;;;;;;;;;;;;;;;6.90;32.04;99612.34;4482203;31;33960;-63
2022/03/03 04:40:06;;;;;;;;;;;;;;;7.02;31.62;99614.25;4484680;31;32772;-63
2022/03/03 04:42:41;;;;;;;;;;;;;;;6.27;34.48;99614.34;4484449;31;34491;-63
2022/03/03 04:45:14;;;;;;;;;;;;;;;6.79;32.85;99612.16;4482045;31;34294;-63
2022/03/03 04:47:49;;;;;;;;;;;;;;;6.57;33.33;99626.75;4480040;31;33406;-62
2022/03/03 04:50:22;;;;;;;;;;;;;;;7.09;32.01;99620.03;4480438;32;34184;-62
2022/03/03 04:52:53;;;;;;;;;;;;;;;7.23;31.35;99620.06;4481703;31;33125;-63
2022/03/03 04:55:29;;;;;;;;;;;;;;;7.07;31.75;99627.28;4484783;31;35189;-63
2022/03/03 04:58:00;;;;;;;;;;;;;;;6.91;32.66;99630.88;4484522;31;33356;-62
2022/03/03 05:00:29;;;;;;;;;;;;;;;6.68;32.98;99629.63;4480371;31;34383;-63
2022/03/03 05:02:59;;;;;;;;;;;;;;;6.61;33.44;99628.28;4490013;31;33479;-63
2022/03/03 05:05:32;;;;;;;;;;;;;;;5.83;33.93;99625.72;4485392;31;34262;-63
2022/03/03 05:08:01;;;;;;;;;;;;;;;5.99;33.95;99620.41;4479826;31;34092;-63
2022/03/03 05:10:31;;;;;;;;;;;;;;;6.21;33.19;99611.19;4481245;31;34798;-64
2022/03/03 05:13:01;;;;;;;;;;;;;;;6.21;33.76;99614.72;4489356;31;32363;-65
2022/03/03 05:15:31;;;;;;;;;;;;;;;5.79;34.83;99624.19;4487850;31;33042;-65
2022/03/03 05:18:01;;;;;;;;;;;;;;;6.26;33.63;99614.41;4487953;31;35621;-62
2022/03/03 05:20:30;;;;;;;;;;;;;;;6.35;33.16;99618.34;4480146;31;33326;-64
2022/03/03 05:22:58;;;;;;;;;;;;;;;6.33;33.30;99620.25;4495033;31;33555;-62
2022/03/03 05:25:29;;;;;;;;;;;;;;;6.10;33.26;99614.50;4488013;31;32703;-64
2022/03/03 05:28:00;;;;;;;;;;;;;;;6.25;33.55;99620.69;4487235;31;35811;-63
2022/03/03 05:30:29;;;;;;;;;;;;;;;6.45;32.64;99617.72;4486140;31;35465;-63
2022/03/03 05:32:58;;;;;;;;;;;;;;;6.19;33.46;99621.06;4485376;31;33379;-64
2022/03/03 05:35:27;;;;;;;;;;;;;;;6.32;33.44;99621.19;4490439;31;33752;-63
2022/03/03 05:37:57;;;;;;;;;;;;;;;6.22;33.88;99629.69;4483109;31;33995;-63
2022/03/03 05:40:28;;;;;;;;;;;;;;;6.51;32.51;99625.31;4483159;31;34603;-63
2022/03/03 05:42:57;;;;;;;;;;;;;;;6.15;34.42;99620.37;4483578;31;33244;-63
2022/03/03 05:45:26;;;;;;;;;;;;;;;6.06;34.44;99620.91;4485475;31;34112;-63
2022/03/03 05:47:55;;;;;;;;;;;;;;;6.43;32.83;99618.75;4483598;31;35239;-64
2022/03/03 05:50:25;;;;;;;;;;;;;;;6.44;33.58;99613.34;4481631;31;35110;-64
2022/03/03 05:52:59;;;;;;;;;;;;;;;6.33;33.92;99617.59;4481883;31;32984;-64
2022/03/03 05:55:39;;;;;;;;;;;;;;;6.44;32.74;99618.66;4487377;31;32998;-64
2022/03/03 05:58:10;;;;;;;;;;;;;;;6.61;33.22;99622.94;4486535;31;34086;-64
2022/03/03 06:00:42;;;;;;;;;;;;;;;6.48;34.13;99614.84;4478261;31;33088;-64
2022/03/03 06:03:14;;;;;;;;;;;;;;;6.57;32.89;99623.25;4467342;31;34133;-64
2022/03/03 06:05:51;;;;;;;;;;;;;;;6.51;33.08;99624.47;4491772;31;33286;-63
2022/03/03 06:08:23;;;;;;;;;;;;;;;6.79;32.71;99618.34;4488920;31;34164;-64
2022/03/03 06:10:52;;;;;;;;;;;;;;;6.91;32.32;99625.56;4487811;31;35428;-64
2022/03/03 06:13:23;;;;;;;;;;;;;;;7.05;32.57;99626.50;4482332;31;33142;-62
2022/03/03 06:15:54;;;;;;;;;;;;;;;7.16;32.22;99624.91;4485740;31;34282;-62
2022/03/03 06:18:25;;;;;;;;;;;;;;;7.10;32.67;99629.75;4488846;31;33369;-63
2022/03/03 06:20:54;;;;;;;;;;;;;;;7.29;32.00;99627.66;4490171;31;33318;-63
2022/03/03 06:23:23;;;;;;;;;;;;;;;7.13;32.52;99625.09;4485696;31;32106;-64
2022/03/03 06:25:58;;;;;;;;;;;;;;;7.53;31.79;99624.38;4485842;31;32955;-63
2022/03/03 06:28:28;;;;;;;;;;;;;;;7.68;31.72;99626.06;4471875;31;35114;-63
2022/03/03 06:30:58;;;;;;;;;;;;;;;7.78;32.04;99627.16;4483348;31;34168;-63
2022/03/03 06:33:27;;;;;;;;;;;;;;;7.93;31.59;99626.16;4479794;31;32579;-63
2022/03/03 06:35:57;;;;;;;;;;;;;;;8.10;31.42;99626.87;4482685;31;33905;-63
2022/03/03 06:38:28;;;;;;;;;;;;;;;8.13;31.71;99627.50;4486894;31;32742;-60
2022/03/03 06:41:05;;;;;;;;;;;;;;;8.45;31.42;99634.34;4485804;31;33108;-60
2022/03/03 06:43:35;;;;;;;;;;;;;;;8.91;29.66;99636.50;4481809;31;33528;-61
2022/03/03 06:46:04;;;;;;;;;;;;;;;8.74;30.14;99643.03;4483039;31;34361;-60
2022/03/03 06:48:35;;;;;;;;;;;;;;;8.77;29.83;99649.00;4481339;31;34406;-61
2022/03/03 06:51:05;;;;;;;;;;;;;;;9.07;29.61;99647.81;4489548;31;33774;-60
2022/03/03 06:53:39;;;;;;;;;;;;;;;10.29;27.88;99648.78;4488924;31;32234;-61
2022/03/03 06:56:10;;;;;;;;;;;;;;;10.81;27.03;99642.13;4482876;31;34286;-64
2022/03/03 06:58:39;;;;;;;;;;;;;;;10.71;27.18;99633.13;4485311;31;34384;-61
2022/03/03 07:01:10;;;;;;;;;;;;;;;10.52;27.51;99633.66;4481432;31;34207;-61
2022/03/03 07:03:41;;;;;;;;;;;;;;;10.24;28.04;99643.78;4488574;31;32440;-61
2022/03/03 07:06:10;;;;;;;;;;;;;;;9.96;28.52;99642.28;4486102;31;34005;-62
2022/03/03 07:08:38;;;;;;;;;;;;;;;9.99;29.21;99647.41;4470522;31;34453;-62
2022/03/03 07:11:07;;;;;;;;;;;;;;;9.85;29.72;99641.34;4473187;31;35947;-68
2022/03/03 07:13:36;;;;;;;;;;;;;;;10.04;29.43;99637.22;4482523;31;32441;-63
2022/03/03 07:16:25;;;;;;;;;;;;;;;10.30;28.91;99639.78;4487726;31;33239;-61
2022/03/03 07:18:53;;;;;;;;;;;;;;;10.35;28.87;99642.97;4480681;31;34136;-62
2022/03/03 07:21:25;;;;;;;;;;;;;;;10.50;29.50;99638.31;4473001;31;33922;-62
2022/03/03 07:23:55;;;;;;;;;;;;;;;10.52;28.70;99646.19;4488482;31;34400;-62
2022/03/03 07:26:25;;;;;;;;;;;;;;;10.64;29.06;99645.28;4474145;31;32871;-62
2022/03/03 07:29:06;;;;;;;;;;;;;;;10.98;28.53;99638.16;4481505;31;33887;-62
2022/03/03 07:31:41;;;;;;;;;;;;;;;11.00;28.50;99641.56;4478676;31;33144;-61
2022/03/03 07:34:09;;;;;;;;;;;;;;;11.23;28.16;99644.25;4489273;31;32642;-61
2022/03/03 07:36:40;;;;;;;;;;;;;;;11.18;28.85;99647.31;4485401;31;34822;-62
2022/03/03 07:39:11;;;;;;;;;;;;;;;11.57;28.08;99637.91;4469184;31;35699;-61
2022/03/03 07:41:39;;;;;;;;;;;;;;;11.19;28.54;99643.66;4482992;31;33269;-61
2022/03/03 07:44:07;;;;;;;;;;;;;;;11.25;28.46;99635.13;4468996;31;33437;-62
2022/03/03 07:46:35;;;;;;;;;;;;;;;11.76;27.71;99633.75;4484693;31;33938;-61
2022/03/03 07:49:04;;;;;;;;;;;;;;;10.84;28.27;99614.28;4468306;31;35479;-62
2022/03/03 07:51:32;;;;;;;;;;;;;;;12.08;26.78;99623.09;4484819;31;34293;-61
2022/03/03 07:54:03;;;;;;;;;;;;;;;12.60;25.47;99621.38;4489216;31;33674;-61
2022/03/03 07:56:38;;;;;;;;;;;;;;;12.90;25.84;99622.41;4490550;31;32535;-61
2022/03/03 07:59:09;;;;;;;;;;;;;;;13.48;25.18;99618.22;4470714;31;34029;-61
2022/03/03 08:01:38;;;;;;;;;;;;;;;13.54;25.08;99616.78;4468571;31;34336;-61
2022/03/03 08:04:07;;;;;;;;;;;;;;;13.77;25.00;99613.88;4478974;31;34696;-62
2022/03/03 08:06:35;;;;;;;;;;;;;;;14.87;23.62;99611.81;4479793;31;35476;-63
2022/03/03 08:09:04;;;;;;;;;;;;;;;15.46;22.54;99605.19;4482094;31;35469;-61
2022/03/03 08:11:34;;;;;;;;;;;;;;;14.44;23.76;99611.28;4471951;31;33493;-61
2022/03/03 08:14:08;;;;;;;;;;;;;;;14.20;23.96;99606.31;4467652;31;33633;-61
2022/03/03 08:16:47;;;;;;;;;;;;;;;13.83;24.70;99618.72;4487791;31;32646;-61
2022/03/03 08:19:17;;;;;;;;;;;;;;;13.51;24.70;99603.63;4490017;31;34478;-61
2022/03/03 08:21:45;;;;;;;;;;;;;;;13.21;25.85;99610.69;4490191;31;33047;-62
2022/03/03 08:24:18;;;;;;;;;;;;;;;14.26;24.55;99604.91;4485936;31;32673;-61
2022/03/03 08:26:46;;;;;;;;;;;;;;;13.90;25.48;99606.41;4483467;31;34071;-61
2022/03/03 08:29:15;;;;;;;;;;;;;;;14.30;24.56;99595.53;4482047;31;34637;-62
2022/03/03 08:31:46;;;;;;;;;;;;;;;14.01;24.90;99598.22;4481112;31;34589;-61
2022/03/03 08:34:26;;;;;;;;;;;;;;;13.97;25.14;99596.81;4484780;31;34225;-61
2022/03/03 08:37:00;;;;;;;;;;;;;;;15.24;23.35;99589.41;4484431;31;34065;-61
2022/03/03 08:39:29;;;;;;;;;;;;;;;14.85;23.02;99589.53;4485204;31;33201;-61
2022/03/03 08:41:59;;;;;;;;;;;;;;;14.57;23.39;99594.81;4469710;31;34466;-61
2022/03/03 08:44:54;;;;;;;;;;;;;;;15.73;22.51;99599.00;4487636;31;33249;-63
2022/03/03 08:47:28;;;;;;;;;;;;;;;16.24;21.30;99588.53;4485381;31;33926;-62
2022/03/03 08:50:08;;;;;;;;;;;;;;;18.69;19.17;99583.38;4480407;31;35647;-61
2022/03/03 08:53:06;;;;;;;;;;;;;;;19.38;18.23;99579.16;4482945;31;34341;-61
2022/03/03 08:55:41;;;;;;;;;;;;;;;16.71;21.60;99585.53;4485288;31;32064;-61
2022/03/03 08:58:24;;;;;;;;;;;;;;;15.67;21.43;99575.31;4483631;31;33167;-62
2022/03/03 09:01:00;;;;;;;;;;;;;;;12.58;24.82;99589.31;4483674;31;34041;-61
2022/03/03 09:03:46;;;;;;;;;;;;;;;13.68;24.84;99583.31;4486036;31;33467;-62
2022/03/03 09:06:19;;;;;;;;;;;;;;;13.61;24.17;99584.81;4482756;31;33045;-61
2022/03/03 09:08:54;;;;;;;;;;;;;;;13.31;25.35;99583.91;4486278;31;32879;-61
2022/03/03 09:11:29;;;;;;;;;;;;;;;12.53;25.78;99591.53;4482861;31;34406;-61
2022/03/03 09:13:58;;;;;;;;;;;;;;;14.17;24.48;99585.06;4484891;31;33950;-61
2022/03/03 09:16:37;;;;;;;;;;;;;;;12.89;25.38;99593.88;4472611;31;32201;-62
2022/03/03 09:19:21;;;;;;;;;;;;;;;13.64;24.71;99589.94;4485893;31;34297;-61
2022/03/03 09:22:03;;;;;;;;;;;;;;;12.25;26.84;99594.84;4483635;31;33050;-61
2022/03/03 09:24:38;;;;;;;;;;;;;;;11.64;27.63;99598.06;4495285;31;33308;-61
2022/03/03 09:27:18;;;;;;;;;;;;;;;10.99;28.60;99605.06;4482515;32;32262;-61
2022/03/03 09:29:55;;;;;;;;;;;;;;;12.49;26.90;99600.00;4490944;31;32356;-61
2022/03/03 09:32:24;;;;;;;;;;;;;;;12.89;26.12;99593.88;4493241;31;34203;-60
2022/03/03 09:35:10;;;;;;;;;;;;;;;11.80;27.24;99601.19;4490526;31;36765;-61
2022/03/03 09:37:46;;;;;;;;;;;;;;;12.87;26.62;99593.97;4485573;31;33062;-61
2022/03/03 09:40:27;;;;;;;;;;;;;;;11.33;28.11;99591.63;4482272;31;33192;-60
2022/03/03 09:43:00;;;;;;;;;;;;;;;12.70;27.94;99595.44;4488131;31;34444;-60
2022/03/03 09:45:39;;;;;;;;;;;;;;;11.36;28.64;99594.94;4484800;31;33246;-61
2022/03/03 09:48:21;;;;;;;;;;;;;;;11.06;28.93;99590.19;4490984;31;33507;-61
2022/03/03 09:51:00;;;;;;;;;;;;;;;12.78;27.00;99587.59;4486521;31;33906;-62
2022/03/03 09:53:41;;;;;;;;;;;;;;;12.63;27.12;99583.53;4495617;31;33033;-63
2022/03/03 09:56:16;;;;;;;;;;;;;;;13.13;26.18;99577.41;4488403;31;33252;-62
2022/03/03 09:58:59;;;;;;;;;;;;;;;14.08;25.15;99579.66;4487461;31;34091;-62
2022/03/03 10:01:41;;;;;;;;;;;;;;;14.42;24.88;99577.41;4484706;31;34018;-64
2022/03/03 10:04:21;;;;;;;;;;;;;;;13.27;25.43;99571.72;4485466;31;35577;-62
2022/03/03 10:07:04;;;;;;;;;;;;;;;12.58;26.63;99575.00;4487372;31;35245;-63
2022/03/03 10:10:10;;;;;;;;;;;;;;;11.76;27.74;99586.34;4489598;31;32368;-61
2022/03/03 10:12:53;;;;;;;;;;;;;;;11.66;28.02;99580.03;4484970;31;34254;-62
2022/03/03 10:15:36;;;;;;;;;;;;;;;12.22;27.34;99576.31;4485128;31;32531;-62
2022/03/03 10:18:17;;;;;;;;;;;;;;;12.99;26.10;99578.62;4491681;31;32980;-63
2022/03/03 10:21:00;;;;;;;;;;;;;;;11.02;28.71;99586.06;4488454;31;31502;-62
2022/03/03 10:23:38;;;;;;;;;;;;;;;13.23;25.82;99572.97;4486940;31;34650;-62
2022/03/03 10:26:12;;;;;;;;;;;;;;;13.24;26.08;99574.66;4490756;31;32962;-63
2022/03/03 10:28:55;;;;;;;;;;;;;;;12.90;26.07;99577.59;4487620;31;33258;-65
2022/03/03 10:31:28;;;;;;;;;;;;;;;11.59;27.59;99568.97;4487271;31;33286;-63
2022/03/03 10:34:19;;;;;;;;;;;;;;;12.99;26.42;99568.75;4489631;31;32278;-63
2022/03/03 10:37:00;;;;;;;;;;;;;;;13.63;25.40;99562.19;4480790;31;33158;-62
2022/03/03 10:39:43;;;;;;;;;;;;;;;13.35;26.16;99565.66;4487240;31;33213;-61
2022/03/03 10:42:20;;;;;;;;;;;;;;;11.85;27.42;99569.53;4490450;31;33950;-64
2022/03/03 10:44:55;;;;;;;;;;;;;;;11.36;28.44;99561.91;4486294;31;32922;-62
2022/03/03 10:47:45;;;;;;;;;;;;;;;11.62;28.62;99557.09;4487241;31;33080;-60
2022/03/03 10:50:25;;;;;;;;;;;;;;;12.45;27.48;99560.94;4484374;31;33439;-61
2022/03/03 10:53:10;;;;;;;;;;;;;;;12.28;27.22;99554.34;4484258;31;34364;-61
2022/03/03 10:56:07;;;;;;;;;;;;;;;11.88;27.56;99549.66;4489845;31;34065;-61
2022/03/03 10:58:49;;;;;;;;;;;;;;;12.90;27.10;99539.16;4490621;31;33955;-60
2022/03/03 11:01:29;;;;;;;;;;;;;;;13.02;26.35;99532.69;4485880;31;34553;-60
2022/03/03 11:04:01;;;;;;;;;;;;;;;12.90;26.37;99537.31;4486264;31;32532;-60
2022/03/03 11:06:34;;;;;;;;;;;;;;;13.40;26.15;99529.31;4483778;31;32962;-62
2022/03/03 11:09:11;;;;;;;;;;;;;;;12.83;26.34;99531.62;4490552;31;33115;-60
2022/03/03 11:11:47;;;;;;;;;;;;;;;13.26;26.22;99524.34;4487278;31;33265;-60
2022/03/03 11:14:17;;;;;;;;;;;;;;;11.48;27.99;99533.28;4469571;31;33675;-60
2022/03/03 11:17:08;;;;;;;;;;;;;;;12.33;27.11;99519.91;4469991;31;32143;-60
2022/03/03 11:19:38;;;;;;;;;;;;;;;12.28;27.02;99514.94;4485279;31;34392;-60
2022/03/03 11:22:07;;;;;;;;;;;;;;;11.36;28.57;99519.03;4488067;31;36414;-61
2022/03/03 11:24:41;;;;;;;;;;;;;;;10.51;29.51;99510.72;4485939;31;32144;-61
2022/03/03 11:27:21;;;;;;;;;;;;;;;11.85;28.04;99510.53;4473476;31;32942;-63
2022/03/03 11:30:16;;;;;;;;;;;;;;;11.94;28.03;99505.34;4476846;31;35196;-63
2022/03/03 11:33:11;;;;;;;;;;;;;;;12.91;27.11;99495.19;4490972;31;32504;-60
2022/03/03 11:35:54;;;;;;;;;;;;;;;13.01;27.36;99505.00;4485393;31;33707;-61
2022/03/03 11:38:49;;;;;;;;;;;;;;;13.63;25.46;99496.81;4486918;31;34118;-60
2022/03/03 11:41:44;;;;;;;;;;;;;;;14.08;25.15;99496.25;4489554;31;34028;-61
2022/03/03 11:44:34;;;;;;;;;;;;;;;13.85;25.53;99484.94;4487099;31;33340;-63
2022/03/03 11:47:37;;;;;;;;;;;;;;;12.07;27.73;99481.88;4481282;32;32655;-64
2022/03/03 11:50:16;;;;;;;;;;;;;;;12.79;26.72;99483.69;4487690;31;33079;-66
2022/03/03 11:52:52;;;;;;;;;;;;;;;13.69;25.77;99474.72;4491451;31;33900;-62
2022/03/03 11:55:43;;;;;;;;;;;;;;;12.83;27.59;99469.84;4484695;31;35876;-64
2022/03/03 11:58:23;;;;;;;;;;;;;;;14.12;26.42;99466.19;4490434;31;33681;-64
2022/03/03 12:01:01;;;;;;;;;;;;;;;13.15;26.31;99467.97;4475048;31;34119;-63
2022/03/03 12:03:31;;;;;;;;;;;;;;;13.81;26.32;99459.31;4482659;32;34472;-61
2022/03/03 12:06:08;;;;;;;;;;;;;;;14.24;24.89;99463.34;4483358;31;33041;-63
2022/03/03 12:08:46;;;;;;;;;;;;;;;14.96;23.73;99464.53;4488719;31;33484;-63
2022/03/03 12:11:20;;;;;;;;;;;;;;;14.79;23.79;99458.94;4491472;31;33093;-62
2022/03/03 12:14:00;;;;;;;;;;;;;;;14.66;24.42;99458.44;4485332;31;34398;-61
2022/03/03 12:16:33;;;;;;;;;;;;;;;14.99;23.62;99448.06;4476410;31;33594;-61
2022/03/03 12:19:14;;;;;;;;;;;;;;;15.21;23.58;99444.97;4485960;31;32420;-62
2022/03/03 12:21:46;;;;;;;;;;;;;;;15.04;23.51;99443.09;4487426;31;32948;-61
2022/03/03 12:24:27;;;;;;;;;;;;;;;15.94;22.80;99439.47;4489263;31;34202;-63
2022/03/03 12:26:55;;;;;;;;;;;;;;;16.08;22.14;99435.34;4494958;31;34302;-62
2022/03/03 12:29:27;;;;;;;;;;;;;;;16.27;21.78;99424.31;4486709;31;34356;-62
2022/03/03 12:31:57;;;;;;;;;;;;;;;16.53;21.95;99432.44;4493392;31;34580;-62
2022/03/03 12:34:27;;;;;;;;;;;;;;;15.86;22.26;99427.72;4490823;31;33185;-61
2022/03/03 12:36:58;;;;;;;;;;;;;;;15.26;22.32;99437.28;4482465;32;33222;-62
2022/03/03 12:39:29;;;;;;;;;;;;;;;15.57;22.45;99435.06;4486769;31;31786;-62
2022/03/03 12:41:58;;;;;;;;;;;;;;;15.71;22.32;99436.41;4486765;31;33000;-64
2022/03/03 12:44:37;;;;;;;;;;;;;;;16.30;21.76;99429.41;4484055;31;32111;-63
2022/03/03 12:47:15;;;;;;;;;;;;;;;15.47;22.26;99426.19;4487488;31;33278;-61
2022/03/03 12:49:50;;;;;;;;;;;;;;;15.92;21.98;99421.72;4487259;31;34664;-62
2022/03/03 12:52:30;;;;;;;;;;;;;;;16.47;21.35;99421.44;4479659;31;32196;-62
2022/03/03 12:55:10;;;;;;;;;;;;;;;15.73;22.72;99426.31;4470999;32;34204;-64
2022/03/03 12:57:44;;;;;;;;;;;;;;;16.49;22.01;99425.66;4463176;31;32657;-64
2022/03/03 13:00:14;;;;;;;;;;;;;;;16.44;22.04;99417.19;4468874;32;32628;-63
2022/03/03 13:02:59;;;;;;;;;;;;;;;16.95;21.61;99411.84;4466323;32;34094;-63
2022/03/03 13:05:33;;;;;;;;;;;;;;;16.67;21.90;99406.66;4464023;32;32991;-63
2022/03/03 13:08:01;;;;;;;;;;;;;;;17.31;21.37;99412.50;4472459;31;34258;-64
2022/03/03 13:10:29;;;;;;;;;;;;;;;16.68;21.97;99411.06;4471653;32;32497;-64
2022/03/03 13:12:57;;;;;;;;;;;;;;;17.16;21.19;99401.47;4467021;32;34204;-62
2022/03/03 13:15:29;;;;;;;;;;;;;;;17.30;20.78;99402.66;4475615;32;34282;-62
2022/03/03 13:18:00;;;;;;;;;;;;;;;16.79;20.94;99401.00;4468238;31;34054;-63
2022/03/03 13:20:32;;;;;;;;;;;;;;;17.25;20.88;99391.50;4476277;32;34711;-63